sensor_id;sensor_type;location;lat;lon;timestamp;P1;durP1;ratioP1;P2;durP2;ratioP2
18322;SDS011;9287;49.456;11.064;2024-02-28T00:01:15;31.60;;;20.63;;
18322;SDS011;9287;49.456;11.064;2024-02-28T00:03:43;30.03;;;20.33;;
18322;SDS011;9287;49.456;11.064;2024-02-28T00:06:11;33.07;;;21.53;;
18322;SDS011;9287;49.456;11.064;2024-02-28T00:08:41;32.53;;;21.57;;
18322;SDS011;9287;49.456;11.064;2024-02-28T00:11:09;33.13;;;21.73;;
18322;SDS011;9287;49.456;11.064;2024-02-28T00:13:36;33.27;;;21.23;;
18322;SDS011;9287;49.456;11.064;2024-02-28T00:16:04;29.57;;;20.83;;
18322;SDS011;9287;49.456;11.064;2024-02-28T00:18:32;30.57;;;20.97;;
18322;SDS011;9287;49.456;11.064;2024-02-28T00:21:00;32.00;;;21.10;;
18322;SDS011;9287;49.456;11.064;2024-02-28T00:23:28;32.90;;;20.60;;
18322;SDS011;9287;49.456;11.064;2024-02-28T00:25:57;31.40;;;21.03;;
18322;SDS011;9287;49.456;11.064;2024-02-28T00:28:25;31.10;;;21.13;;
18322;SDS011;9287;49.456;11.064;2024-02-28T00:30:53;30.20;;;19.90;;
18322;SDS011;9287;49.456;11.064;2024-02-28T00:33:20;31.87;;;21.10;;
18322;SDS011;9287;49.456;11.064;2024-02-28T00:35:48;29.03;;;20.20;;
18322;SDS011;9287;49.456;11.064;2024-02-28T00:38:16;32.07;;;20.53;;
18322;SDS011;9287;49.456;11.064;2024-02-28T00:40:44;31.30;;;20.90;;
18322;SDS011;9287;49.456;11.064;2024-02-28T00:43:13;29.83;;;20.43;;
18322;SDS011;9287;49.456;11.064;2024-02-28T00:45:41;30.57;;;19.40;;
18322;SDS011;9287;49.456;11.064;2024-02-28T00:48:09;32.33;;;21.27;;
18322;SDS011;9287;49.456;11.064;2024-02-28T00:50:37;32.10;;;21.10;;
18322;SDS011;9287;49.456;11.064;2024-02-28T00:53:05;27.83;;;19.00;;
18322;SDS011;9287;49.456;11.064;2024-02-28T00:55:33;28.97;;;19.10;;
18322;SDS011;9287;49.456;11.064;2024-02-28T00:58:01;26.83;;;19.07;;
18322;SDS011;9287;49.456;11.064;2024-02-28T01:00:30;32.37;;;19.57;;
18322;SDS011;9287;49.456;11.064;2024-02-28T01:02:58;33.23;;;20.90;;
18322;SDS011;9287;49.456;11.064;2024-02-28T01:05:26;31.23;;;20.17;;
18322;SDS011;9287;49.456;11.064;2024-02-28T01:07:53;31.37;;;20.43;;
18322;SDS011;9287;49.456;11.064;2024-02-28T01:10:21;33.10;;;20.77;;
18322;SDS011;9287;49.456;11.064;2024-02-28T01:12:49;28.33;;;19.27;;
18322;SDS011;9287;49.456;11.064;2024-02-28T01:15:17;29.77;;;19.97;;
18322;SDS011;9287;49.456;11.064;2024-02-28T01:17:46;31.27;;;21.07;;
18322;SDS011;9287;49.456;11.064;2024-02-28T01:20:14;31.43;;;21.07;;
18322;SDS011;9287;49.456;11.064;2024-02-28T01:22:42;28.37;;;19.63;;
18322;SDS011;9287;49.456;11.064;2024-02-28T01:25:10;33.00;;;20.90;;
18322;SDS011;9287;49.456;11.064;2024-02-28T01:27:38;30.43;;;21.00;;
18322;SDS011;9287;49.456;11.064;2024-02-28T01:30:06;30.07;;;20.40;;
18322;SDS011;9287;49.456;11.064;2024-02-28T01:32:35;28.13;;;18.93;;
18322;SDS011;9287;49.456;11.064;2024-02-28T01:35:05;31.77;;;21.00;;
18322;SDS011;9287;49.456;11.064;2024-02-28T01:37:35;29.47;;;18.27;;
18322;SDS011;9287;49.456;11.064;2024-02-28T01:40:03;29.67;;;21.00;;
18322;SDS011;9287;49.456;11.064;2024-02-28T01:42:32;29.73;;;20.07;;
18322;SDS011;9287;49.456;11.064;2024-02-28T01:45:00;32.23;;;20.80;;
18322;SDS011;9287;49.456;11.064;2024-02-28T01:47:27;32.80;;;20.70;;
18322;SDS011;9287;49.456;11.064;2024-02-28T01:49:55;31.07;;;19.47;;
18322;SDS011;9287;49.456;11.064;2024-02-28T01:52:25;32.60;;;20.70;;
18322;SDS011;9287;49.456;11.064;2024-02-28T01:54:53;31.03;;;20.30;;
18322;SDS011;9287;49.456;11.064;2024-02-28T01:57:21;31.00;;;20.77;;
18322;SDS011;9287;49.456;11.064;2024-02-28T01:59:50;27.70;;;18.70;;
18322;SDS011;9287;49.456;11.064;2024-02-28T02:02:21;28.23;;;19.43;;
18322;SDS011;9287;49.456;11.064;2024-02-28T02:04:49;30.07;;;20.20;;
18322;SDS011;9287;49.456;11.064;2024-02-28T02:07:19;30.87;;;20.97;;
18322;SDS011;9287;49.456;11.064;2024-02-28T02:09:48;31.13;;;20.40;;
18322;SDS011;9287;49.456;11.064;2024-02-28T02:12:16;30.13;;;20.10;;
18322;SDS011;9287;49.456;11.064;2024-02-28T02:14:46;26.97;;;18.23;;
18322;SDS011;9287;49.456;11.064;2024-02-28T02:17:14;31.63;;;20.87;;
18322;SDS011;9287;49.456;11.064;2024-02-28T02:19:42;29.43;;;19.93;;
18322;SDS011;9287;49.456;11.064;2024-02-28T02:22:11;30.40;;;20.37;;
18322;SDS011;9287;49.456;11.064;2024-02-28T02:24:42;28.90;;;19.10;;
18322;SDS011;9287;49.456;11.064;2024-02-28T02:27:10;29.53;;;19.80;;
18322;SDS011;9287;49.456;11.064;2024-02-28T02:29:38;27.83;;;19.13;;
18322;SDS011;9287;49.456;11.064;2024-02-28T02:32:06;28.93;;;18.77;;
18322;SDS011;9287;49.456;11.064;2024-02-28T02:34:34;30.20;;;20.33;;
18322;SDS011;9287;49.456;11.064;2024-02-28T02:37:02;29.27;;;19.70;;
18322;SDS011;9287;49.456;11.064;2024-02-28T02:39:31;27.70;;;19.10;;
18322;SDS011;9287;49.456;11.064;2024-02-28T02:42:00;29.50;;;19.97;;
18322;SDS011;9287;49.456;11.064;2024-02-28T02:44:28;30.87;;;20.03;;
18322;SDS011;9287;49.456;11.064;2024-02-28T02:46:56;28.83;;;19.47;;
18322;SDS011;9287;49.456;11.064;2024-02-28T02:49:23;31.50;;;20.30;;
18322;SDS011;9287;49.456;11.064;2024-02-28T02:51:51;28.37;;;18.90;;
18322;SDS011;9287;49.456;11.064;2024-02-28T02:54:19;28.00;;;18.50;;
18322;SDS011;9287;49.456;11.064;2024-02-28T02:56:47;28.80;;;19.30;;
18322;SDS011;9287;49.456;11.064;2024-02-28T02:59:16;28.53;;;20.07;;
18322;SDS011;9287;49.456;11.064;2024-02-28T03:01:48;29.67;;;20.23;;
18322;SDS011;9287;49.456;11.064;2024-02-28T03:04:17;29.63;;;19.60;;
18322;SDS011;9287;49.456;11.064;2024-02-28T03:06:44;32.43;;;20.27;;
18322;SDS011;9287;49.456;11.064;2024-02-28T03:09:12;27.53;;;18.60;;
18322;SDS011;9287;49.456;11.064;2024-02-28T03:11:40;28.93;;;19.87;;
18322;SDS011;9287;49.456;11.064;2024-02-28T03:14:08;31.70;;;20.00;;
18322;SDS011;9287;49.456;11.064;2024-02-28T03:16:40;28.50;;;19.43;;
18322;SDS011;9287;49.456;11.064;2024-02-28T03:19:09;32.33;;;20.33;;
18322;SDS011;9287;49.456;11.064;2024-02-28T03:21:37;29.97;;;20.00;;
18322;SDS011;9287;49.456;11.064;2024-02-28T03:24:05;29.73;;;19.60;;
18322;SDS011;9287;49.456;11.064;2024-02-28T03:26:33;30.93;;;19.80;;
18322;SDS011;9287;49.456;11.064;2024-02-28T03:29:01;28.70;;;19.20;;
18322;SDS011;9287;49.456;11.064;2024-02-28T03:31:29;28.73;;;19.83;;
18322;SDS011;9287;49.456;11.064;2024-02-28T03:33:58;30.60;;;19.03;;
18322;SDS011;9287;49.456;11.064;2024-02-28T03:36:27;29.63;;;19.57;;
18322;SDS011;9287;49.456;11.064;2024-02-28T03:38:55;30.40;;;19.00;;
18322;SDS011;9287;49.456;11.064;2024-02-28T03:41:23;31.30;;;19.70;;
18322;SDS011;9287;49.456;11.064;2024-02-28T03:43:51;30.13;;;19.13;;
18322;SDS011;9287;49.456;11.064;2024-02-28T03:46:19;28.50;;;19.33;;
18322;SDS011;9287;49.456;11.064;2024-02-28T03:48:47;30.03;;;19.67;;
18322;SDS011;9287;49.456;11.064;2024-02-28T03:51:17;30.43;;;20.40;;
18322;SDS011;9287;49.456;11.064;2024-02-28T03:53:44;29.20;;;19.43;;
18322;SDS011;9287;49.456;11.064;2024-02-28T03:56:12;28.07;;;19.70;;
18322;SDS011;9287;49.456;11.064;2024-02-28T03:58:40;31.90;;;21.10;;
18322;SDS011;9287;49.456;11.064;2024-02-28T04:01:08;30.93;;;19.80;;
18322;SDS011;9287;49.456;11.064;2024-02-28T04:03:36;30.20;;;19.57;;
18322;SDS011;9287;49.456;11.064;2024-02-28T04:06:04;30.67;;;19.73;;
18322;SDS011;9287;49.456;11.064;2024-02-28T04:08:33;28.00;;;19.43;;
18322;SDS011;9287;49.456;11.064;2024-02-28T04:11:00;28.33;;;17.70;;
18322;SDS011;9287;49.456;11.064;2024-02-28T04:13:28;26.80;;;17.43;;
18322;SDS011;9287;49.456;11.064;2024-02-28T04:15:56;28.33;;;18.10;;
18322;SDS011;9287;49.456;11.064;2024-02-28T04:18:24;28.10;;;17.97;;
18322;SDS011;9287;49.456;11.064;2024-02-28T04:20:52;26.73;;;17.13;;
18322;SDS011;9287;49.456;11.064;2024-02-28T04:23:20;28.07;;;17.90;;
18322;SDS011;9287;49.456;11.064;2024-02-28T04:25:49;25.93;;;17.27;;
18322;SDS011;9287;49.456;11.064;2024-02-28T04:28:17;27.23;;;17.60;;
18322;SDS011;9287;49.456;11.064;2024-02-28T04:30:45;27.07;;;16.93;;
18322;SDS011;9287;49.456;11.064;2024-02-28T04:33:12;26.50;;;17.30;;
18322;SDS011;9287;49.456;11.064;2024-02-28T04:35:40;25.30;;;16.30;;
18322;SDS011;9287;49.456;11.064;2024-02-28T04:38:08;24.80;;;16.53;;
18322;SDS011;9287;49.456;11.064;2024-02-28T04:40:36;24.13;;;16.50;;
18322;SDS011;9287;49.456;11.064;2024-02-28T04:43:05;25.57;;;16.33;;
18322;SDS011;9287;49.456;11.064;2024-02-28T04:45:33;23.70;;;16.77;;
18322;SDS011;9287;49.456;11.064;2024-02-28T04:48:02;22.47;;;15.70;;
18322;SDS011;9287;49.456;11.064;2024-02-28T04:50:30;26.63;;;16.63;;
18322;SDS011;9287;49.456;11.064;2024-02-28T04:52:58;24.57;;;16.13;;
18322;SDS011;9287;49.456;11.064;2024-02-28T04:55:26;25.03;;;15.80;;
18322;SDS011;9287;49.456;11.064;2024-02-28T04:57:54;25.10;;;16.60;;
18322;SDS011;9287;49.456;11.064;2024-02-28T05:00:23;23.53;;;15.83;;
18322;SDS011;9287;49.456;11.064;2024-02-28T05:02:51;24.27;;;16.10;;
18322;SDS011;9287;49.456;11.064;2024-02-28T05:05:18;26.27;;;16.57;;
18322;SDS011;9287;49.456;11.064;2024-02-28T05:07:46;23.63;;;16.23;;
18322;SDS011;9287;49.456;11.064;2024-02-28T05:10:14;23.40;;;16.43;;
18322;SDS011;9287;49.456;11.064;2024-02-28T05:12:42;23.53;;;16.23;;
18322;SDS011;9287;49.456;11.064;2024-02-28T05:15:10;24.23;;;16.47;;
18322;SDS011;9287;49.456;11.064;2024-02-28T05:17:39;25.90;;;16.47;;
18322;SDS011;9287;49.456;11.064;2024-02-28T05:20:07;25.27;;;16.37;;
18322;SDS011;9287;49.456;11.064;2024-02-28T05:22:36;23.47;;;16.33;;
18322;SDS011;9287;49.456;11.064;2024-02-28T05:25:06;26.00;;;17.07;;
18322;SDS011;9287;49.456;11.064;2024-02-28T05:27:34;26.50;;;17.40;;
18322;SDS011;9287;49.456;11.064;2024-02-28T05:30:02;23.83;;;15.37;;
18322;SDS011;9287;49.456;11.064;2024-02-28T05:32:32;24.70;;;16.43;;
18322;SDS011;9287;49.456;11.064;2024-02-28T05:35:01;26.03;;;16.20;;
18322;SDS011;9287;49.456;11.064;2024-02-28T05:37:29;23.70;;;15.80;;
18322;SDS011;9287;49.456;11.064;2024-02-28T05:39:57;21.77;;;15.07;;
18322;SDS011;9287;49.456;11.064;2024-02-28T05:42:25;23.67;;;16.17;;
18322;SDS011;9287;49.456;11.064;2024-02-28T05:44:53;24.20;;;16.03;;
18322;SDS011;9287;49.456;11.064;2024-02-28T05:47:20;24.30;;;15.63;;
18322;SDS011;9287;49.456;11.064;2024-02-28T05:49:51;24.63;;;15.67;;
18322;SDS011;9287;49.456;11.064;2024-02-28T05:52:20;25.27;;;15.73;;
18322;SDS011;9287;49.456;11.064;2024-02-28T05:54:48;22.87;;;16.07;;
18322;SDS011;9287;49.456;11.064;2024-02-28T05:57:16;22.17;;;14.93;;
18322;SDS011;9287;49.456;11.064;2024-02-28T05:59:44;25.57;;;16.37;;
18322;SDS011;9287;49.456;11.064;2024-02-28T06:02:12;22.43;;;15.33;;
18322;SDS011;9287;49.456;11.064;2024-02-28T06:04:40;24.70;;;15.00;;
18322;SDS011;9287;49.456;11.064;2024-02-28T06:07:08;24.60;;;16.27;;
18322;SDS011;9287;49.456;11.064;2024-02-28T06:09:37;22.73;;;15.40;;
18322;SDS011;9287;49.456;11.064;2024-02-28T06:12:06;24.77;;;15.60;;
18322;SDS011;9287;49.456;11.064;2024-02-28T06:14:34;25.63;;;15.73;;
18322;SDS011;9287;49.456;11.064;2024-02-28T06:17:02;25.43;;;15.93;;
18322;SDS011;9287;49.456;11.064;2024-02-28T06:19:30;24.23;;;15.03;;
18322;SDS011;9287;49.456;11.064;2024-02-28T06:21:58;20.87;;;13.90;;
18322;SDS011;9287;49.456;11.064;2024-02-28T06:24:26;20.90;;;14.50;;
18322;SDS011;9287;49.456;11.064;2024-02-28T06:26:56;21.83;;;14.57;;
18322;SDS011;9287;49.456;11.064;2024-02-28T06:29:24;21.43;;;14.43;;
18322;SDS011;9287;49.456;11.064;2024-02-28T06:31:52;20.40;;;13.97;;
18322;SDS011;9287;49.456;11.064;2024-02-28T06:34:22;21.03;;;14.53;;
18322;SDS011;9287;49.456;11.064;2024-02-28T06:36:50;21.93;;;15.00;;
18322;SDS011;9287;49.456;11.064;2024-02-28T06:39:19;21.20;;;14.57;;
18322;SDS011;9287;49.456;11.064;2024-02-28T06:41:47;20.43;;;14.10;;
18322;SDS011;9287;49.456;11.064;2024-02-28T06:44:19;24.47;;;15.17;;
18322;SDS011;9287;49.456;11.064;2024-02-28T06:46:49;21.13;;;14.67;;
18322;SDS011;9287;49.456;11.064;2024-02-28T06:49:17;21.70;;;14.83;;
18322;SDS011;9287;49.456;11.064;2024-02-28T06:51:44;24.23;;;14.97;;
18322;SDS011;9287;49.456;11.064;2024-02-28T06:54:12;22.77;;;13.33;;
18322;SDS011;9287;49.456;11.064;2024-02-28T06:56:40;22.27;;;14.67;;
18322;SDS011;9287;49.456;11.064;2024-02-28T06:59:08;22.13;;;15.27;;
18322;SDS011;9287;49.456;11.064;2024-02-28T07:01:37;23.27;;;14.70;;
18322;SDS011;9287;49.456;11.064;2024-02-28T07:04:05;20.67;;;13.50;;
18322;SDS011;9287;49.456;11.064;2024-02-28T07:06:33;24.73;;;14.30;;
18322;SDS011;9287;49.456;11.064;2024-02-28T07:09:01;22.13;;;13.80;;
18322;SDS011;9287;49.456;11.064;2024-02-28T07:11:29;22.47;;;14.37;;
18322;SDS011;9287;49.456;11.064;2024-02-28T07:13:57;21.00;;;14.50;;
18322;SDS011;9287;49.456;11.064;2024-02-28T07:16:28;24.20;;;15.00;;
18322;SDS011;9287;49.456;11.064;2024-02-28T07:18:57;21.50;;;14.80;;
18322;SDS011;9287;49.456;11.064;2024-02-28T07:21:25;20.00;;;14.60;;
18322;SDS011;9287;49.456;11.064;2024-02-28T07:23:53;23.80;;;14.97;;
18322;SDS011;9287;49.456;11.064;2024-02-28T07:26:21;21.53;;;13.63;;
18322;SDS011;9287;49.456;11.064;2024-02-28T07:28:53;23.17;;;14.73;;
18322;SDS011;9287;49.456;11.064;2024-02-28T07:31:21;21.60;;;13.73;;
18322;SDS011;9287;49.456;11.064;2024-02-28T07:33:49;18.73;;;13.90;;
18322;SDS011;9287;49.456;11.064;2024-02-28T07:36:18;21.90;;;13.80;;
18322;SDS011;9287;49.456;11.064;2024-02-28T07:38:47;19.90;;;14.37;;
18322;SDS011;9287;49.456;11.064;2024-02-28T07:41:14;22.50;;;14.53;;
18322;SDS011;9287;49.456;11.064;2024-02-28T07:43:42;20.47;;;13.80;;
18322;SDS011;9287;49.456;11.064;2024-02-28T07:46:10;20.60;;;14.33;;
18322;SDS011;9287;49.456;11.064;2024-02-28T07:48:38;19.87;;;13.90;;
18322;SDS011;9287;49.456;11.064;2024-02-28T07:51:06;19.60;;;12.97;;
18322;SDS011;9287;49.456;11.064;2024-02-28T07:53:37;19.47;;;13.23;;
18322;SDS011;9287;49.456;11.064;2024-02-28T07:56:04;22.37;;;13.37;;
18322;SDS011;9287;49.456;11.064;2024-02-28T07:58:32;19.83;;;13.93;;
18322;SDS011;9287;49.456;11.064;2024-02-28T08:01:00;19.50;;;14.07;;
18322;SDS011;9287;49.456;11.064;2024-02-28T08:03:28;22.57;;;15.10;;
18322;SDS011;9287;49.456;11.064;2024-02-28T08:05:56;22.20;;;14.23;;
18322;SDS011;9287;49.456;11.064;2024-02-28T08:08:24;21.37;;;14.77;;
18322;SDS011;9287;49.456;11.064;2024-02-28T08:10:53;20.83;;;14.30;;
18322;SDS011;9287;49.456;11.064;2024-02-28T08:13:21;19.67;;;13.50;;
18322;SDS011;9287;49.456;11.064;2024-02-28T08:15:49;21.43;;;14.57;;
18322;SDS011;9287;49.456;11.064;2024-02-28T08:18:17;20.53;;;14.37;;
18322;SDS011;9287;49.456;11.064;2024-02-28T08:20:44;22.10;;;14.30;;
18322;SDS011;9287;49.456;11.064;2024-02-28T08:23:12;23.40;;;15.10;;
18322;SDS011;9287;49.456;11.064;2024-02-28T08:25:40;21.43;;;14.93;;
18322;SDS011;9287;49.456;11.064;2024-02-28T08:28:09;23.30;;;15.40;;
18322;SDS011;9287;49.456;11.064;2024-02-28T08:30:37;24.60;;;15.13;;
18322;SDS011;9287;49.456;11.064;2024-02-28T08:33:05;21.83;;;14.83;;
18322;SDS011;9287;49.456;11.064;2024-02-28T08:35:35;24.43;;;14.97;;
18322;SDS011;9287;49.456;11.064;2024-02-28T08:38:03;21.17;;;13.37;;
18322;SDS011;9287;49.456;11.064;2024-02-28T08:40:31;19.00;;;14.10;;
18322;SDS011;9287;49.456;11.064;2024-02-28T08:42:58;21.17;;;14.03;;
18322;SDS011;9287;49.456;11.064;2024-02-28T08:45:28;20.27;;;14.03;;
18322;SDS011;9287;49.456;11.064;2024-02-28T08:47:56;19.43;;;13.53;;
18322;SDS011;9287;49.456;11.064;2024-02-28T08:50:27;19.03;;;13.93;;
18322;SDS011;9287;49.456;11.064;2024-02-28T08:52:55;23.90;;;15.60;;
18322;SDS011;9287;49.456;11.064;2024-02-28T08:55:23;18.63;;;13.60;;
18322;SDS011;9287;49.456;11.064;2024-02-28T08:57:51;19.67;;;13.63;;
18322;SDS011;9287;49.456;11.064;2024-02-28T09:00:19;21.07;;;14.43;;
18322;SDS011;9287;49.456;11.064;2024-02-28T09:02:49;19.83;;;13.03;;
18322;SDS011;9287;49.456;11.064;2024-02-28T09:05:17;18.73;;;13.90;;
18322;SDS011;9287;49.456;11.064;2024-02-28T09:07:45;19.90;;;13.83;;
18322;SDS011;9287;49.456;11.064;2024-02-28T09:10:17;20.80;;;14.97;;
18322;SDS011;9287;49.456;11.064;2024-02-28T09:12:47;21.00;;;14.33;;
18322;SDS011;9287;49.456;11.064;2024-02-28T09:15:15;18.40;;;13.23;;
18322;SDS011;9287;49.456;11.064;2024-02-28T09:17:43;20.13;;;12.83;;
18322;SDS011;9287;49.456;11.064;2024-02-28T09:20:13;20.80;;;14.07;;
18322;SDS011;9287;49.456;11.064;2024-02-28T09:22:41;17.50;;;13.00;;
18322;SDS011;9287;49.456;11.064;2024-02-28T09:25:09;19.67;;;13.97;;
18322;SDS011;9287;49.456;11.064;2024-02-28T09:27:37;20.60;;;13.93;;
18322;SDS011;9287;49.456;11.064;2024-02-28T09:30:05;18.83;;;14.20;;
18322;SDS011;9287;49.456;11.064;2024-02-28T09:32:34;21.07;;;14.60;;
18322;SDS011;9287;49.456;11.064;2024-02-28T09:35:02;18.33;;;13.17;;
18322;SDS011;9287;49.456;11.064;2024-02-28T09:37:31;18.93;;;14.03;;
18322;SDS011;9287;49.456;11.064;2024-02-28T09:39:59;18.57;;;13.80;;
18322;SDS011;9287;49.456;11.064;2024-02-28T09:42:29;21.27;;;13.57;;
18322;SDS011;9287;49.456;11.064;2024-02-28T09:44:57;19.73;;;14.67;;
18322;SDS011;9287;49.456;11.064;2024-02-28T09:47:28;17.83;;;12.90;;
18322;SDS011;9287;49.456;11.064;2024-02-28T09:49:57;17.07;;;13.00;;
18322;SDS011;9287;49.456;11.064;2024-02-28T09:52:24;17.57;;;12.77;;
18322;SDS011;9287;49.456;11.064;2024-02-28T09:54:55;14.90;;;12.10;;
18322;SDS011;9287;49.456;11.064;2024-02-28T09:57:23;16.30;;;12.67;;
18322;SDS011;9287;49.456;11.064;2024-02-28T09:59:54;16.67;;;12.73;;
18322;SDS011;9287;49.456;11.064;2024-02-28T10:02:23;18.30;;;13.03;;
18322;SDS011;9287;49.456;11.064;2024-02-28T10:04:52;16.73;;;12.90;;
18322;SDS011;9287;49.456;11.064;2024-02-28T10:07:20;15.80;;;11.50;;
18322;SDS011;9287;49.456;11.064;2024-02-28T10:09:48;13.97;;;11.67;;
18322;SDS011;9287;49.456;11.064;2024-02-28T10:12:17;14.27;;;11.40;;
18322;SDS011;9287;49.456;11.064;2024-02-28T10:14:48;14.47;;;11.83;;
18322;SDS011;9287;49.456;11.064;2024-02-28T10:17:17;14.60;;;11.37;;
18322;SDS011;9287;49.456;11.064;2024-02-28T10:19:45;13.93;;;10.93;;
18322;SDS011;9287;49.456;11.064;2024-02-28T10:22:13;12.90;;;10.13;;
18322;SDS011;9287;49.456;11.064;2024-02-28T10:24:41;13.87;;;10.67;;
18322;SDS011;9287;49.456;11.064;2024-02-28T10:27:09;15.23;;;10.73;;
18322;SDS011;9287;49.456;11.064;2024-02-28T10:29:38;18.30;;;11.83;;
18322;SDS011;9287;49.456;11.064;2024-02-28T10:32:07;16.83;;;11.67;;
18322;SDS011;9287;49.456;11.064;2024-02-28T10:34:35;17.23;;;12.77;;
18322;SDS011;9287;49.456;11.064;2024-02-28T10:37:04;15.73;;;12.00;;
18322;SDS011;9287;49.456;11.064;2024-02-28T10:39:33;16.07;;;12.37;;
18322;SDS011;9287;49.456;11.064;2024-02-28T10:42:02;19.17;;;12.73;;
18322;SDS011;9287;49.456;11.064;2024-02-28T10:44:31;17.10;;;12.90;;
18322;SDS011;9287;49.456;11.064;2024-02-28T10:47:03;17.50;;;13.13;;
18322;SDS011;9287;49.456;11.064;2024-02-28T10:49:38;17.07;;;11.80;;
18322;SDS011;9287;49.456;11.064;2024-02-28T10:52:10;16.73;;;11.33;;
18322;SDS011;9287;49.456;11.064;2024-02-28T10:54:40;17.63;;;12.37;;
18322;SDS011;9287;49.456;11.064;2024-02-28T10:57:09;13.17;;;10.70;;
18322;SDS011;9287;49.456;11.064;2024-02-28T10:59:40;16.83;;;12.40;;
18322;SDS011;9287;49.456;11.064;2024-02-28T11:02:11;15.87;;;12.07;;
18322;SDS011;9287;49.456;11.064;2024-02-28T11:04:39;19.10;;;12.77;;
18322;SDS011;9287;49.456;11.064;2024-02-28T11:07:07;15.07;;;11.47;;
18322;SDS011;9287;49.456;11.064;2024-02-28T11:09:35;15.97;;;12.50;;
18322;SDS011;9287;49.456;11.064;2024-02-28T11:12:04;18.60;;;11.90;;
18322;SDS011;9287;49.456;11.064;2024-02-28T11:14:32;16.17;;;11.70;;
18322;SDS011;9287;49.456;11.064;2024-02-28T11:17:03;17.63;;;12.77;;
18322;SDS011;9287;49.456;11.064;2024-02-28T11:19:34;16.07;;;12.07;;
18322;SDS011;9287;49.456;11.064;2024-02-28T11:22:02;15.20;;;12.03;;
18322;SDS011;9287;49.456;11.064;2024-02-28T11:24:33;15.67;;;12.63;;
18322;SDS011;9287;49.456;11.064;2024-02-28T11:27:04;15.97;;;11.57;;
18322;SDS011;9287;49.456;11.064;2024-02-28T11:29:33;17.13;;;12.23;;
18322;SDS011;9287;49.456;11.064;2024-02-28T11:32:01;13.53;;;9.73;;
18322;SDS011;9287;49.456;11.064;2024-02-28T11:34:29;14.93;;;11.53;;
18322;SDS011;9287;49.456;11.064;2024-02-28T11:36:58;15.43;;;10.87;;
18322;SDS011;9287;49.456;11.064;2024-02-28T11:39:26;17.00;;;12.50;;
18322;SDS011;9287;49.456;11.064;2024-02-28T11:42:02;15.73;;;11.37;;
18322;SDS011;9287;49.456;11.064;2024-02-28T11:44:36;13.07;;;10.80;;
18322;SDS011;9287;49.456;11.064;2024-02-28T11:47:04;15.07;;;11.17;;
18322;SDS011;9287;49.456;11.064;2024-02-28T11:49:32;11.63;;;9.70;;
18322;SDS011;9287;49.456;11.064;2024-02-28T11:52:02;11.80;;;9.50;;
18322;SDS011;9287;49.456;11.064;2024-02-28T11:54:30;14.27;;;10.07;;
18322;SDS011;9287;49.456;11.064;2024-02-28T11:56:58;13.20;;;10.00;;
18322;SDS011;9287;49.456;11.064;2024-02-28T11:59:26;14.90;;;11.53;;
18322;SDS011;9287;49.456;11.064;2024-02-28T12:01:54;13.30;;;10.20;;
18322;SDS011;9287;49.456;11.064;2024-02-28T12:04:23;15.30;;;11.03;;
18322;SDS011;9287;49.456;11.064;2024-02-28T12:06:51;15.53;;;11.43;;
18322;SDS011;9287;49.456;11.064;2024-02-28T12:09:20;14.60;;;10.87;;
18322;SDS011;9287;49.456;11.064;2024-02-28T12:11:59;12.47;;;9.80;;
18322;SDS011;9287;49.456;11.064;2024-02-28T12:14:27;12.40;;;10.33;;
18322;SDS011;9287;49.456;11.064;2024-02-28T12:16:57;14.57;;;10.60;;
18322;SDS011;9287;49.456;11.064;2024-02-28T12:19:25;12.80;;;9.80;;
18322;SDS011;9287;49.456;11.064;2024-02-28T12:21:53;13.03;;;10.00;;
18322;SDS011;9287;49.456;11.064;2024-02-28T12:24:22;13.90;;;9.70;;
18322;SDS011;9287;49.456;11.064;2024-02-28T12:26:50;12.87;;;9.60;;
18322;SDS011;9287;49.456;11.064;2024-02-28T12:29:18;12.60;;;10.60;;
18322;SDS011;9287;49.456;11.064;2024-02-28T12:31:45;10.73;;;8.63;;
18322;SDS011;9287;49.456;11.064;2024-02-28T12:34:13;13.20;;;9.70;;
18322;SDS011;9287;49.456;11.064;2024-02-28T12:36:42;11.80;;;9.43;;
18322;SDS011;9287;49.456;11.064;2024-02-28T12:39:12;15.40;;;10.07;;
18322;SDS011;9287;49.456;11.064;2024-02-28T12:41:42;13.10;;;10.23;;
18322;SDS011;9287;49.456;11.064;2024-02-28T12:44:08;13.03;;;9.73;;
18322;SDS011;9287;49.456;11.064;2024-02-28T12:46:36;12.77;;;9.40;;
18322;SDS011;9287;49.456;11.064;2024-02-28T12:49:04;12.87;;;9.60;;
18322;SDS011;9287;49.456;11.064;2024-02-28T12:51:35;12.43;;;9.60;;
18322;SDS011;9287;49.456;11.064;2024-02-28T12:54:05;10.30;;;8.60;;
18322;SDS011;9287;49.456;11.064;2024-02-28T12:56:34;11.30;;;7.67;;
18322;SDS011;9287;49.456;11.064;2024-02-28T12:59:03;10.83;;;8.80;;
18322;SDS011;9287;49.456;11.064;2024-02-28T13:01:33;15.47;;;9.00;;
18322;SDS011;9287;49.456;11.064;2024-02-28T13:04:01;11.40;;;9.27;;
18322;SDS011;9287;49.456;11.064;2024-02-28T13:06:29;13.37;;;9.90;;
18322;SDS011;9287;49.456;11.064;2024-02-28T13:08:57;12.30;;;10.03;;
18322;SDS011;9287;49.456;11.064;2024-02-28T13:11:24;12.20;;;9.70;;
18322;SDS011;9287;49.456;11.064;2024-02-28T13:13:52;13.13;;;8.87;;
18322;SDS011;9287;49.456;11.064;2024-02-28T13:16:21;10.57;;;8.27;;
18322;SDS011;9287;49.456;11.064;2024-02-28T13:18:49;7.87;;;6.70;;
18322;SDS011;9287;49.456;11.064;2024-02-28T13:21:17;9.37;;;6.83;;
18322;SDS011;9287;49.456;11.064;2024-02-28T13:23:45;8.93;;;6.80;;
18322;SDS011;9287;49.456;11.064;2024-02-28T13:26:13;9.57;;;7.17;;
18322;SDS011;9287;49.456;11.064;2024-02-28T13:28:45;9.10;;;7.03;;
18322;SDS011;9287;49.456;11.064;2024-02-28T13:31:17;8.73;;;6.30;;
18322;SDS011;9287;49.456;11.064;2024-02-28T13:33:46;8.23;;;6.83;;
18322;SDS011;9287;49.456;11.064;2024-02-28T13:36:15;10.70;;;8.10;;
18322;SDS011;9287;49.456;11.064;2024-02-28T13:38:43;7.90;;;6.83;;
18322;SDS011;9287;49.456;11.064;2024-02-28T13:41:11;8.03;;;6.57;;
18322;SDS011;9287;49.456;11.064;2024-02-28T13:43:39;7.87;;;6.43;;
18322;SDS011;9287;49.456;11.064;2024-02-28T13:46:07;7.20;;;5.83;;
18322;SDS011;9287;49.456;11.064;2024-02-28T13:48:36;8.30;;;6.47;;
18322;SDS011;9287;49.456;11.064;2024-02-28T13:51:05;6.87;;;6.17;;
18322;SDS011;9287;49.456;11.064;2024-02-28T13:53:33;6.90;;;6.00;;
18322;SDS011;9287;49.456;11.064;2024-02-28T13:56:01;8.33;;;6.30;;
18322;SDS011;9287;49.456;11.064;2024-02-28T13:58:29;9.17;;;6.87;;
18322;SDS011;9287;49.456;11.064;2024-02-28T14:01:08;8.77;;;7.83;;
18322;SDS011;9287;49.456;11.064;2024-02-28T14:03:36;9.20;;;7.50;;
18322;SDS011;9287;49.456;11.064;2024-02-28T14:06:09;9.23;;;7.23;;
18322;SDS011;9287;49.456;11.064;2024-02-28T14:08:37;10.40;;;7.53;;
18322;SDS011;9287;49.456;11.064;2024-02-28T14:11:09;9.97;;;7.40;;
18322;SDS011;9287;49.456;11.064;2024-02-28T14:13:37;10.33;;;8.20;;
18322;SDS011;9287;49.456;11.064;2024-02-28T14:16:06;9.60;;;7.33;;
18322;SDS011;9287;49.456;11.064;2024-02-28T14:18:34;11.60;;;8.20;;
18322;SDS011;9287;49.456;11.064;2024-02-28T14:21:02;9.40;;;7.10;;
18322;SDS011;9287;49.456;11.064;2024-02-28T14:23:34;11.73;;;8.07;;
18322;SDS011;9287;49.456;11.064;2024-02-28T14:26:02;9.53;;;7.60;;
18322;SDS011;9287;49.456;11.064;2024-02-28T14:28:30;9.80;;;7.73;;
18322;SDS011;9287;49.456;11.064;2024-02-28T14:30:58;11.50;;;8.27;;